Time,TemperatureF,DewpointF,PressureIn,WindDirection,WindDirectionDegrees,WindSpeedMPH,WindSpeedGustMPH,Humidity,HourlyPrecipIn,Conditions,Clouds,dailyrainin,SolarRadiationWatts/m^2,SoftwareType,DateUTC
2013-07-16 10:43:00,59.0,52.0,-100.00,NW,312,4.0,7.0,79,-99.99,,,0.00,510.000000,,2013-07-16 17:43:00,
2013-07-16 10:53:00,59.0,52.0,-100.00,NW,312,4.0,7.0,79,-99.99,,,0.00,510.000000,,2013-07-16 17:53:00,
2013-07-16 11:01:00,59.0,52.0,-100.00,NW,312,4.0,7.0,79,-99.99,,,0.00,510.000000,,2013-07-16 18:01:00,
2013-07-16 11:43:00,62.0,55.0,-100.00,North,351,5.0,10.0,78,0.00,,,0.00,762.000000,,2013-07-16 18:43:00,
2013-07-16 11:52:00,62.0,55.0,-100.00,North,351,5.0,10.0,78,0.00,,,0.00,762.000000,,2013-07-16 18:52:00,
2013-07-16 12:01:00,62.0,55.0,-100.00,North,351,5.0,10.0,78,0.00,,,0.00,762.000000,,2013-07-16 19:01:00,
2013-07-16 12:32:00,64.0,56.0,-100.00,North,354,4.0,11.0,74,0.00,,,0.00,745.000000,,2013-07-16 19:32:00,
2013-07-16 12:43:00,64.0,56.0,-100.00,North,354,4.0,11.0,74,0.00,,,0.00,745.000000,,2013-07-16 19:43:00,
2013-07-16 12:52:00,64.0,56.0,-100.00,North,354,4.0,11.0,74,0.00,,,0.00,745.000000,,2013-07-16 19:52:00,
2013-07-16 13:03:00,64.0,56.0,-100.00,North,354,4.0,11.0,74,0.00,,,0.00,745.000000,,2013-07-16 20:03:00,
2013-07-16 13:43:00,65.0,55.0,-100.00,NNW,341,4.0,11.0,70,0.00,,,0.00,947.000000,,2013-07-16 20:43:00,
2013-07-16 13:52:00,65.0,55.0,-100.00,NNW,341,4.0,11.0,70,0.00,,,0.00,947.000000,,2013-07-16 20:52:00,
2013-07-16 14:01:00,65.0,55.0,-100.00,NNW,341,4.0,11.0,70,0.00,,,0.00,947.000000,,2013-07-16 21:01:00,
2013-07-16 14:43:00,63.0,55.0,-100.00,NW,324,3.0,13.0,76,0.00,,,0.00,578.000000,,2013-07-16 21:43:00,
2013-07-16 14:52:00,63.0,55.0,-100.00,NW,324,3.0,13.0,76,0.00,,,0.00,578.000000,,2013-07-16 21:52:00,
2013-07-16 15:01:00,63.0,55.0,-100.00,NW,324,3.0,13.0,76,0.00,,,0.00,578.000000,,2013-07-16 22:01:00,
2013-07-16 15:33:00,60.0,54.0,-100.00,NNW,335,5.0,14.0,82,0.00,,,0.00,320.000000,,2013-07-16 22:33:00,
2013-07-16 15:43:00,60.0,54.0,-100.00,NNW,335,5.0,14.0,82,0.00,,,0.00,320.000000,,2013-07-16 22:43:00,
2013-07-16 15:52:00,60.0,54.0,-100.00,NNW,335,5.0,14.0,82,0.00,,,0.00,320.000000,,2013-07-16 22:52:00,
2013-07-16 16:01:00,60.0,54.0,-100.00,NNW,335,5.0,14.0,82,0.00,,,0.00,320.000000,,2013-07-16 23:01:00,
2013-07-16 16:32:00,58.0,55.0,-100.00,NW,318,6.0,13.0,90,0.00,,,0.00,254.000000,,2013-07-16 23:32:00,
2013-07-16 16:43:00,58.0,55.0,-100.00,NW,318,6.0,13.0,90,0.00,,,0.00,254.000000,,2013-07-16 23:43:00,
2013-07-16 16:52:00,58.0,55.0,-100.00,NW,318,6.0,13.0,90,0.00,,,0.00,254.000000,,2013-07-16 23:52:00,
2013-07-16 17:01:00,58.0,55.0,-100.00,NW,318,6.0,13.0,90,0.00,,,0.00,254.000000,,2013-07-17 00:01:00,
2013-07-16 17:42:00,57.0,55.0,-100.00,NNW,346,4.0,12.0,92,0.00,,,0.00,170.000000,,2013-07-17 00:42:00,
2013-07-16 17:52:00,57.0,55.0,-100.00,NNW,346,4.0,12.0,92,0.00,,,0.00,170.000000,,2013-07-17 00:52:00,
2013-07-16 18:01:00,57.0,55.0,-100.00,NNW,346,4.0,12.0,92,0.00,,,0.00,170.000000,,2013-07-17 01:01:00,
2013-07-16 18:43:00,56.0,54.0,-100.00,North,353,2.0,9.0,92,0.00,,,0.00,102.000000,,2013-07-17 01:43:00,
2013-07-16 18:53:00,56.0,54.0,-100.00,North,353,2.0,9.0,92,0.00,,,0.00,102.000000,,2013-07-17 01:53:00,
2013-07-16 19:01:00,56.0,54.0,-100.00,North,353,2.0,9.0,92,0.00,,,0.00,102.000000,,2013-07-17 02:01:00,
2013-07-16 19:32:00,55.0,54.0,-100.00,NW,307,3.0,8.0,95,0.00,,,0.00,57.000000,,2013-07-17 02:32:00,
2013-07-16 19:43:00,55.0,54.0,-100.00,NW,307,3.0,8.0,95,0.00,,,0.00,57.000000,,2013-07-17 02:43:00,
2013-07-16 19:53:00,55.0,54.0,-100.00,NW,307,3.0,8.0,95,0.00,,,0.00,57.000000,,2013-07-17 02:53:00,
2013-07-16 20:01:00,55.0,54.0,-100.00,NW,307,3.0,8.0,95,0.00,,,0.00,57.000000,,2013-07-17 03:01:00,
2013-07-16 20:43:00,54.0,53.0,-100.00,NNW,336,3.0,7.0,96,0.00,,,0.00,24.000000,,2013-07-17 03:43:00,
2013-07-16 20:53:00,54.0,53.0,-100.00,NNW,336,3.0,7.0,96,0.00,,,0.00,24.000000,,2013-07-17 03:53:00,
2013-07-16 21:01:00,54.0,53.0,-100.00,NNW,336,3.0,7.0,96,0.00,,,0.00,24.000000,,2013-07-17 04:01:00,
2013-07-16 21:32:00,54.0,53.0,-100.00,WSW,249,2.0,7.0,96,0.00,,,-99.99,4.000000,,2013-07-17 04:32:00,
2013-07-16 21:43:00,54.0,53.0,-100.00,WSW,249,2.0,7.0,96,0.00,,,-99.99,4.000000,,2013-07-17 04:43:00,
2013-07-16 21:53:00,54.0,53.0,-100.00,WSW,249,2.0,7.0,96,0.00,,,-99.99,4.000000,,2013-07-17 04:53:00,
2013-07-16 22:01:00,54.0,53.0,-100.00,WSW,249,2.0,7.0,96,0.00,,,-99.99,4.000000,,2013-07-17 05:01:00,
2013-07-16 22:32:00,53.0,52.0,-100.00,West,275,2.0,5.0,96,0.00,,,-99.99,0.000000,,2013-07-17 05:32:00,
2013-07-16 22:43:00,53.0,52.0,-100.00,West,275,2.0,5.0,96,0.00,,,-99.99,0.000000,,2013-07-17 05:43:00,
2013-07-16 22:52:00,53.0,52.0,-100.00,West,275,2.0,5.0,96,0.00,,,-99.99,0.000000,,2013-07-17 05:52:00,
2013-07-16 23:01:00,53.0,52.0,-100.00,West,275,2.0,5.0,96,0.00,,,-99.99,0.000000,,2013-07-17 06:01:00,
2013-07-16 23:33:00,54.0,53.0,-100.00,North,359,1.0,5.0,97,0.00,,,-99.99,0.000000,,2013-07-17 06:33:00,
2013-07-16 23:43:00,54.0,53.0,-100.00,North,359,1.0,5.0,97,0.00,,,-99.99,0.000000,,2013-07-17 06:43:00,
2013-07-16 23:52:00,54.0,53.0,-100.00,North,359,1.0,5.0,97,0.00,,,-99.99,0.000000,,2013-07-17 06:52:00,